sensor_id;sensor_type;location;lat;lon;timestamp;P1;durP1;ratioP1;P2;durP2;ratioP2
6033;SDS011;3045;43.226;27.858;2022-11-20T00:01:26;9.20;;;5.37;;
6033;SDS011;3045;43.226;27.858;2022-11-20T00:03:54;8.60;;;4.83;;
6033;SDS011;3045;43.226;27.858;2022-11-20T00:06:23;9.90;;;4.73;;
6033;SDS011;3045;43.226;27.858;2022-11-20T00:08:50;9.93;;;5.33;;
6033;SDS011;3045;43.226;27.858;2022-11-20T00:11:18;11.83;;;5.70;;
6033;SDS011;3045;43.226;27.858;2022-11-20T00:13:47;10.07;;;6.13;;
6033;SDS011;3045;43.226;27.858;2022-11-20T00:16:16;5.53;;;5.03;;
6033;SDS011;3045;43.226;27.858;2022-11-20T00:18:46;14.73;;;5.67;;
6033;SDS011;3045;43.226;27.858;2022-11-20T00:21:14;8.47;;;5.50;;
6033;SDS011;3045;43.226;27.858;2022-11-20T00:23:42;18.60;;;6.27;;
6033;SDS011;3045;43.226;27.858;2022-11-20T00:26:10;10.00;;;5.17;;
6033;SDS011;3045;43.226;27.858;2022-11-20T00:28:38;15.27;;;6.60;;
6033;SDS011;3045;43.226;27.858;2022-11-20T00:31:07;10.40;;;5.43;;
6033;SDS011;3045;43.226;27.858;2022-11-20T00:33:35;5.07;;;4.47;;
6033;SDS011;3045;43.226;27.858;2022-11-20T00:36:04;8.07;;;5.17;;
6033;SDS011;3045;43.226;27.858;2022-11-20T00:38:33;13.53;;;5.47;;
6033;SDS011;3045;43.226;27.858;2022-11-20T00:41:01;10.43;;;5.70;;
6033;SDS011;3045;43.226;27.858;2022-11-20T00:43:29;17.00;;;4.80;;
6033;SDS011;3045;43.226;27.858;2022-11-20T00:45:56;7.10;;;4.73;;
6033;SDS011;3045;43.226;27.858;2022-11-20T00:48:24;10.63;;;4.67;;
6033;SDS011;3045;43.226;27.858;2022-11-20T00:50:51;7.10;;;5.30;;
6033;SDS011;3045;43.226;27.858;2022-11-20T00:53:22;7.93;;;4.60;;
6033;SDS011;3045;43.226;27.858;2022-11-20T00:55:53;5.57;;;5.13;;
6033;SDS011;3045;43.226;27.858;2022-11-20T00:58:21;6.40;;;4.37;;
6033;SDS011;3045;43.226;27.858;2022-11-20T01:00:49;6.63;;;4.30;;
6033;SDS011;3045;43.226;27.858;2022-11-20T01:03:16;5.07;;;4.40;;
6033;SDS011;3045;43.226;27.858;2022-11-20T01:05:43;7.20;;;4.27;;
6033;SDS011;3045;43.226;27.858;2022-11-20T01:08:10;5.53;;;4.53;;
6033;SDS011;3045;43.226;27.858;2022-11-20T01:10:38;5.80;;;3.90;;
6033;SDS011;3045;43.226;27.858;2022-11-20T01:13:05;10.23;;;4.33;;
6033;SDS011;3045;43.226;27.858;2022-11-20T01:15:49;6.57;;;3.40;;
6033;SDS011;3045;43.226;27.858;2022-11-20T01:18:16;8.57;;;4.10;;
6033;SDS011;3045;43.226;27.858;2022-11-20T01:20:43;12.23;;;4.73;;
6033;SDS011;3045;43.226;27.858;2022-11-20T01:23:10;7.40;;;4.17;;
6033;SDS011;3045;43.226;27.858;2022-11-20T01:25:38;6.23;;;4.53;;
6033;SDS011;3045;43.226;27.858;2022-11-20T01:28:05;7.30;;;4.00;;
6033;SDS011;3045;43.226;27.858;2022-11-20T01:30:32;6.43;;;4.17;;
6033;SDS011;3045;43.226;27.858;2022-11-20T01:32:59;8.23;;;4.20;;
6033;SDS011;3045;43.226;27.858;2022-11-20T01:35:26;10.77;;;4.27;;
6033;SDS011;3045;43.226;27.858;2022-11-20T01:37:53;4.97;;;4.50;;
6033;SDS011;3045;43.226;27.858;2022-11-20T01:40:20;7.37;;;4.60;;
6033;SDS011;3045;43.226;27.858;2022-11-20T01:42:52;6.77;;;4.97;;
6033;SDS011;3045;43.226;27.858;2022-11-20T01:45:56;10.27;;;3.97;;
6033;SDS011;3045;43.226;27.858;2022-11-20T01:48:28;5.47;;;4.03;;
6033;SDS011;3045;43.226;27.858;2022-11-20T01:51:00;10.47;;;5.07;;
6033;SDS011;3045;43.226;27.858;2022-11-20T01:53:30;6.97;;;4.00;;
6033;SDS011;3045;43.226;27.858;2022-11-20T01:56:00;7.03;;;4.60;;
6033;SDS011;3045;43.226;27.858;2022-11-20T01:58:31;7.30;;;3.87;;
6033;SDS011;3045;43.226;27.858;2022-11-20T02:01:02;7.83;;;4.43;;
6033;SDS011;3045;43.226;27.858;2022-11-20T02:03:30;15.33;;;4.50;;
6033;SDS011;3045;43.226;27.858;2022-11-20T02:06:01;12.27;;;4.80;;
6033;SDS011;3045;43.226;27.858;2022-11-20T02:08:34;9.13;;;4.00;;
6033;SDS011;3045;43.226;27.858;2022-11-20T02:11:01;6.40;;;3.97;;
6033;SDS011;3045;43.226;27.858;2022-11-20T02:13:28;4.80;;;4.13;;
6033;SDS011;3045;43.226;27.858;2022-11-20T02:16:19;8.57;;;4.50;;
6033;SDS011;3045;43.226;27.858;2022-11-20T02:18:48;10.03;;;4.20;;
6033;SDS011;3045;43.226;27.858;2022-11-20T02:21:23;6.63;;;4.67;;
6033;SDS011;3045;43.226;27.858;2022-11-20T02:24:00;11.80;;;4.70;;
6033;SDS011;3045;43.226;27.858;2022-11-20T02:26:28;9.93;;;4.60;;
6033;SDS011;3045;43.226;27.858;2022-11-20T02:28:57;8.07;;;4.77;;
6033;SDS011;3045;43.226;27.858;2022-11-20T02:31:25;8.37;;;4.70;;
6033;SDS011;3045;43.226;27.858;2022-11-20T02:33:55;7.30;;;4.60;;
6033;SDS011;3045;43.226;27.858;2022-11-20T02:36:23;7.57;;;4.67;;
6033;SDS011;3045;43.226;27.858;2022-11-20T02:38:52;8.77;;;4.20;;
6033;SDS011;3045;43.226;27.858;2022-11-20T02:41:21;8.83;;;4.20;;
6033;SDS011;3045;43.226;27.858;2022-11-20T02:43:56;10.40;;;5.10;;
6033;SDS011;3045;43.226;27.858;2022-11-20T02:46:23;8.37;;;4.93;;
6033;SDS011;3045;43.226;27.858;2022-11-20T02:48:50;6.37;;;4.93;;
6033;SDS011;3045;43.226;27.858;2022-11-20T02:51:17;7.97;;;4.43;;
6033;SDS011;3045;43.226;27.858;2022-11-20T02:53:44;11.23;;;4.30;;
6033;SDS011;3045;43.226;27.858;2022-11-20T02:56:11;13.83;;;4.10;;
6033;SDS011;3045;43.226;27.858;2022-11-20T02:58:39;9.87;;;4.40;;
6033;SDS011;3045;43.226;27.858;2022-11-20T03:01:06;7.13;;;4.47;;
6033;SDS011;3045;43.226;27.858;2022-11-20T03:03:33;13.73;;;4.07;;
6033;SDS011;3045;43.226;27.858;2022-11-20T03:06:00;9.20;;;4.60;;
6033;SDS011;3045;43.226;27.858;2022-11-20T03:08:27;10.37;;;4.20;;
6033;SDS011;3045;43.226;27.858;2022-11-20T03:10:54;7.77;;;4.53;;
6033;SDS011;3045;43.226;27.858;2022-11-20T03:13:21;9.33;;;4.13;;
6033;SDS011;3045;43.226;27.858;2022-11-20T03:15:49;6.10;;;4.20;;
6033;SDS011;3045;43.226;27.858;2022-11-20T03:18:16;8.83;;;4.30;;
6033;SDS011;3045;43.226;27.858;2022-11-20T03:20:43;10.07;;;4.17;;
6033;SDS011;3045;43.226;27.858;2022-11-20T03:23:10;10.07;;;3.70;;
6033;SDS011;3045;43.226;27.858;2022-11-20T03:25:37;7.87;;;4.13;;
6033;SDS011;3045;43.226;27.858;2022-11-20T03:28:04;7.93;;;4.57;;
6033;SDS011;3045;43.226;27.858;2022-11-20T03:30:39;7.27;;;4.00;;
6033;SDS011;3045;43.226;27.858;2022-11-20T03:33:08;7.50;;;4.27;;
6033;SDS011;3045;43.226;27.858;2022-11-20T03:35:34;4.83;;;3.90;;
6033;SDS011;3045;43.226;27.858;2022-11-20T03:38:01;14.23;;;4.60;;
6033;SDS011;3045;43.226;27.858;2022-11-20T03:40:28;7.50;;;3.33;;
6033;SDS011;3045;43.226;27.858;2022-11-20T03:42:55;7.53;;;3.40;;
6033;SDS011;3045;43.226;27.858;2022-11-20T03:45:22;8.77;;;4.17;;
6033;SDS011;3045;43.226;27.858;2022-11-20T03:47:49;6.00;;;4.23;;
6033;SDS011;3045;43.226;27.858;2022-11-20T03:50:18;3.73;;;3.43;;
6033;SDS011;3045;43.226;27.858;2022-11-20T03:52:45;6.40;;;3.67;;
6033;SDS011;3045;43.226;27.858;2022-11-20T03:55:11;7.60;;;3.83;;
6033;SDS011;3045;43.226;27.858;2022-11-20T03:57:38;5.70;;;3.87;;
6033;SDS011;3045;43.226;27.858;2022-11-20T04:00:06;4.47;;;3.20;;
6033;SDS011;3045;43.226;27.858;2022-11-20T04:02:33;8.33;;;3.30;;
6033;SDS011;3045;43.226;27.858;2022-11-20T04:05:00;5.80;;;3.40;;
6033;SDS011;3045;43.226;27.858;2022-11-20T04:07:29;8.23;;;3.13;;
6033;SDS011;3045;43.226;27.858;2022-11-20T04:09:56;6.13;;;3.30;;
6033;SDS011;3045;43.226;27.858;2022-11-20T04:12:23;4.17;;;3.30;;
6033;SDS011;3045;43.226;27.858;2022-11-20T04:14:50;8.50;;;3.90;;
6033;SDS011;3045;43.226;27.858;2022-11-20T04:17:17;9.97;;;3.53;;
6033;SDS011;3045;43.226;27.858;2022-11-20T04:19:43;6.27;;;3.23;;
6033;SDS011;3045;43.226;27.858;2022-11-20T04:22:10;7.47;;;3.43;;
6033;SDS011;3045;43.226;27.858;2022-11-20T04:24:39;4.43;;;3.17;;
6033;SDS011;3045;43.226;27.858;2022-11-20T04:27:06;8.13;;;3.50;;
6033;SDS011;3045;43.226;27.858;2022-11-20T04:29:33;5.63;;;3.40;;
6033;SDS011;3045;43.226;27.858;2022-11-20T04:31:59;3.97;;;3.10;;
6033;SDS011;3045;43.226;27.858;2022-11-20T04:34:26;14.40;;;3.57;;
6033;SDS011;3045;43.226;27.858;2022-11-20T04:36:53;6.93;;;2.90;;
6033;SDS011;3045;43.226;27.858;2022-11-20T04:39:20;5.67;;;2.70;;
6033;SDS011;3045;43.226;27.858;2022-11-20T04:41:48;3.13;;;2.83;;
6033;SDS011;3045;43.226;27.858;2022-11-20T04:44:36;6.73;;;3.20;;
6033;SDS011;3045;43.226;27.858;2022-11-20T04:47:03;8.60;;;3.10;;
6033;SDS011;3045;43.226;27.858;2022-11-20T04:49:30;14.47;;;3.57;;
6033;SDS011;3045;43.226;27.858;2022-11-20T04:51:57;9.20;;;3.10;;
6033;SDS011;3045;43.226;27.858;2022-11-20T04:54:24;8.50;;;3.43;;
6033;SDS011;3045;43.226;27.858;2022-11-20T04:56:52;7.70;;;2.73;;
6033;SDS011;3045;43.226;27.858;2022-11-20T04:59:19;7.30;;;2.97;;
6033;SDS011;3045;43.226;27.858;2022-11-20T05:01:46;7.03;;;2.70;;
6033;SDS011;3045;43.226;27.858;2022-11-20T05:04:13;11.67;;;3.27;;
6033;SDS011;3045;43.226;27.858;2022-11-20T05:06:40;10.07;;;3.63;;
6033;SDS011;3045;43.226;27.858;2022-11-20T05:09:07;9.53;;;3.60;;
6033;SDS011;3045;43.226;27.858;2022-11-20T05:11:34;7.90;;;3.17;;
6033;SDS011;3045;43.226;27.858;2022-11-20T05:14:02;8.80;;;3.50;;
6033;SDS011;3045;43.226;27.858;2022-11-20T05:16:29;4.80;;;2.53;;
6033;SDS011;3045;43.226;27.858;2022-11-20T05:18:56;6.37;;;3.33;;
6033;SDS011;3045;43.226;27.858;2022-11-20T05:21:23;12.30;;;2.80;;
6033;SDS011;3045;43.226;27.858;2022-11-20T05:23:50;3.73;;;2.73;;
6033;SDS011;3045;43.226;27.858;2022-11-20T05:26:18;8.50;;;3.03;;
6033;SDS011;3045;43.226;27.858;2022-11-20T05:28:46;7.73;;;2.70;;
6033;SDS011;3045;43.226;27.858;2022-11-20T05:31:16;6.37;;;3.00;;
6033;SDS011;3045;43.226;27.858;2022-11-20T05:33:44;12.00;;;3.33;;
6033;SDS011;3045;43.226;27.858;2022-11-20T05:36:12;7.97;;;3.17;;
6033;SDS011;3045;43.226;27.858;2022-11-20T05:38:40;7.13;;;3.27;;
6033;SDS011;3045;43.226;27.858;2022-11-20T05:41:08;8.30;;;2.97;;
6033;SDS011;3045;43.226;27.858;2022-11-20T05:43:37;6.27;;;3.10;;
6033;SDS011;3045;43.226;27.858;2022-11-20T05:46:05;9.60;;;3.07;;
6033;SDS011;3045;43.226;27.858;2022-11-20T05:48:34;7.10;;;3.10;;
6033;SDS011;3045;43.226;27.858;2022-11-20T05:51:03;4.77;;;3.30;;
6033;SDS011;3045;43.226;27.858;2022-11-20T05:53:32;7.13;;;3.17;;
6033;SDS011;3045;43.226;27.858;2022-11-20T05:55:59;5.73;;;3.30;;
6033;SDS011;3045;43.226;27.858;2022-11-20T05:58:27;7.90;;;3.30;;
6033;SDS011;3045;43.226;27.858;2022-11-20T06:01:02;6.47;;;3.10;;
6033;SDS011;3045;43.226;27.858;2022-11-20T06:03:30;9.87;;;3.20;;
6033;SDS011;3045;43.226;27.858;2022-11-20T06:05:59;10.90;;;3.13;;
6033;SDS011;3045;43.226;27.858;2022-11-20T06:08:27;7.73;;;3.20;;
6033;SDS011;3045;43.226;27.858;2022-11-20T06:10:54;6.93;;;3.40;;
6033;SDS011;3045;43.226;27.858;2022-11-20T06:13:21;8.53;;;3.10;;
6033;SDS011;3045;43.226;27.858;2022-11-20T06:15:48;6.47;;;3.53;;
6033;SDS011;3045;43.226;27.858;2022-11-20T06:18:16;10.07;;;3.70;;
6033;SDS011;3045;43.226;27.858;2022-11-20T06:20:43;11.73;;;3.50;;
6033;SDS011;3045;43.226;27.858;2022-11-20T06:23:11;5.70;;;2.60;;
6033;SDS011;3045;43.226;27.858;2022-11-20T06:25:39;9.00;;;3.20;;
6033;SDS011;3045;43.226;27.858;2022-11-20T06:28:07;11.63;;;3.33;;
6033;SDS011;3045;43.226;27.858;2022-11-20T06:30:34;8.37;;;3.37;;
6033;SDS011;3045;43.226;27.858;2022-11-20T06:33:01;6.33;;;2.73;;
6033;SDS011;3045;43.226;27.858;2022-11-20T06:35:28;8.67;;;3.40;;
6033;SDS011;3045;43.226;27.858;2022-11-20T06:37:55;11.50;;;3.50;;
6033;SDS011;3045;43.226;27.858;2022-11-20T06:40:24;9.73;;;3.47;;
6033;SDS011;3045;43.226;27.858;2022-11-20T06:42:50;7.20;;;3.50;;
6033;SDS011;3045;43.226;27.858;2022-11-20T06:45:20;6.47;;;2.90;;
6033;SDS011;3045;43.226;27.858;2022-11-20T06:47:47;16.63;;;3.37;;
6033;SDS011;3045;43.226;27.858;2022-11-20T06:50:14;11.27;;;3.17;;
6033;SDS011;3045;43.226;27.858;2022-11-20T06:52:40;16.57;;;3.80;;
6033;SDS011;3045;43.226;27.858;2022-11-20T06:55:07;12.50;;;3.07;;
6033;SDS011;3045;43.226;27.858;2022-11-20T06:57:36;9.47;;;3.17;;
6033;SDS011;3045;43.226;27.858;2022-11-20T07:00:03;9.60;;;3.30;;
6033;SDS011;3045;43.226;27.858;2022-11-20T07:02:31;11.20;;;3.20;;
6033;SDS011;3045;43.226;27.858;2022-11-20T07:04:58;8.03;;;3.23;;
6033;SDS011;3045;43.226;27.858;2022-11-20T07:07:25;11.93;;;2.90;;
6033;SDS011;3045;43.226;27.858;2022-11-20T07:09:52;12.17;;;3.57;;
6033;SDS011;3045;43.226;27.858;2022-11-20T07:12:19;10.97;;;3.63;;
6033;SDS011;3045;43.226;27.858;2022-11-20T07:14:47;17.77;;;4.27;;
6033;SDS011;3045;43.226;27.858;2022-11-20T07:17:14;9.10;;;3.30;;
6033;SDS011;3045;43.226;27.858;2022-11-20T07:19:41;6.90;;;3.10;;
6033;SDS011;3045;43.226;27.858;2022-11-20T07:22:08;14.27;;;3.33;;
6033;SDS011;3045;43.226;27.858;2022-11-20T07:24:35;12.17;;;3.27;;
6033;SDS011;3045;43.226;27.858;2022-11-20T07:27:02;5.33;;;3.20;;
6033;SDS011;3045;43.226;27.858;2022-11-20T07:29:29;10.43;;;3.40;;
6033;SDS011;3045;43.226;27.858;2022-11-20T07:31:57;10.37;;;4.00;;
6033;SDS011;3045;43.226;27.858;2022-11-20T07:34:24;7.97;;;3.50;;
6033;SDS011;3045;43.226;27.858;2022-11-20T07:36:51;9.60;;;3.20;;
6033;SDS011;3045;43.226;27.858;2022-11-20T07:39:18;23.93;;;4.70;;
6033;SDS011;3045;43.226;27.858;2022-11-20T07:41:45;6.43;;;2.87;;
6033;SDS011;3045;43.226;27.858;2022-11-20T07:44:12;9.90;;;2.97;;
6033;SDS011;3045;43.226;27.858;2022-11-20T07:46:38;8.07;;;3.08;;
6033;SDS011;3045;43.226;27.858;2022-11-20T07:49:07;13.87;;;3.50;;
6033;SDS011;3045;43.226;27.858;2022-11-20T07:51:34;10.83;;;3.40;;
6033;SDS011;3045;43.226;27.858;2022-11-20T07:54:00;10.27;;;3.43;;
6033;SDS011;3045;43.226;27.858;2022-11-20T07:56:27;7.60;;;2.90;;
6033;SDS011;3045;43.226;27.858;2022-11-20T07:58:54;10.13;;;3.60;;
6033;SDS011;3045;43.226;27.858;2022-11-20T08:01:21;8.13;;;3.47;;
6033;SDS011;3045;43.226;27.858;2022-11-20T08:03:48;10.03;;;3.33;;
6033;SDS011;3045;43.226;27.858;2022-11-20T08:06:16;10.93;;;3.60;;
6033;SDS011;3045;43.226;27.858;2022-11-20T08:08:44;8.20;;;3.30;;
6033;SDS011;3045;43.226;27.858;2022-11-20T08:11:11;7.60;;;3.30;;
6033;SDS011;3045;43.226;27.858;2022-11-20T08:13:55;14.10;;;3.22;;
6033;SDS011;3045;43.226;27.858;2022-11-20T08:16:37;10.70;;;3.65;;
6033;SDS011;3045;43.226;27.858;2022-11-20T08:19:04;10.52;;;3.80;;
6033;SDS011;3045;43.226;27.858;2022-11-20T08:21:33;10.23;;;3.97;;
6033;SDS011;3045;43.226;27.858;2022-11-20T08:24:00;6.97;;;3.30;;
6033;SDS011;3045;43.226;27.858;2022-11-20T08:26:27;9.75;;;3.65;;
6033;SDS011;3045;43.226;27.858;2022-11-20T08:28:54;6.95;;;3.53;;
6033;SDS011;3045;43.226;27.858;2022-11-20T08:31:21;8.17;;;3.07;;
6033;SDS011;3045;43.226;27.858;2022-11-20T08:33:49;14.98;;;3.75;;
6033;SDS011;3045;43.226;27.858;2022-11-20T08:36:16;9.80;;;3.67;;
6033;SDS011;3045;43.226;27.858;2022-11-20T08:38:48;6.63;;;2.90;;
6033;SDS011;3045;43.226;27.858;2022-11-20T08:41:15;15.48;;;4.20;;
6033;SDS011;3045;43.226;27.858;2022-11-20T08:43:53;14.85;;;4.40;;
6033;SDS011;3045;43.226;27.858;2022-11-20T08:46:22;13.20;;;3.97;;
6033;SDS011;3045;43.226;27.858;2022-11-20T08:48:50;8.07;;;3.47;;
6033;SDS011;3045;43.226;27.858;2022-11-20T08:51:18;16.23;;;3.60;;
6033;SDS011;3045;43.226;27.858;2022-11-20T08:53:45;8.85;;;4.10;;
6033;SDS011;3045;43.226;27.858;2022-11-20T08:56:14;13.68;;;4.13;;
6033;SDS011;3045;43.226;27.858;2022-11-20T08:58:41;13.20;;;3.23;;
6033;SDS011;3045;43.226;27.858;2022-11-20T09:01:08;7.63;;;3.47;;
6033;SDS011;3045;43.226;27.858;2022-11-20T09:03:35;8.53;;;3.40;;
6033;SDS011;3045;43.226;27.858;2022-11-20T09:06:03;13.10;;;3.87;;
6033;SDS011;3045;43.226;27.858;2022-11-20T09:08:31;11.30;;;3.30;;
6033;SDS011;3045;43.226;27.858;2022-11-20T09:11:00;9.13;;;3.63;;
6033;SDS011;3045;43.226;27.858;2022-11-20T09:13:27;14.83;;;4.13;;
6033;SDS011;3045;43.226;27.858;2022-11-20T09:15:55;9.33;;;3.50;;
6033;SDS011;3045;43.226;27.858;2022-11-20T09:18:23;10.80;;;3.40;;
6033;SDS011;3045;43.226;27.858;2022-11-20T09:20:55;12.47;;;4.20;;
6033;SDS011;3045;43.226;27.858;2022-11-20T09:23:23;6.90;;;3.40;;
6033;SDS011;3045;43.226;27.858;2022-11-20T09:25:50;14.38;;;3.72;;
6033;SDS011;3045;43.226;27.858;2022-11-20T09:28:19;9.93;;;3.83;;
6033;SDS011;3045;43.226;27.858;2022-11-20T09:30:46;10.03;;;4.20;;
6033;SDS011;3045;43.226;27.858;2022-11-20T09:33:12;10.27;;;3.22;;
6033;SDS011;3045;43.226;27.858;2022-11-20T09:35:39;16.20;;;3.70;;
6033;SDS011;3045;43.226;27.858;2022-11-20T09:38:06;17.40;;;4.13;;
6033;SDS011;3045;43.226;27.858;2022-11-20T09:40:36;14.27;;;4.20;;
6033;SDS011;3045;43.226;27.858;2022-11-20T09:43:07;17.50;;;4.05;;
6033;SDS011;3045;43.226;27.858;2022-11-20T09:45:42;8.13;;;4.03;;
6033;SDS011;3045;43.226;27.858;2022-11-20T09:48:30;13.70;;;4.63;;
6033;SDS011;3045;43.226;27.858;2022-11-20T09:51:09;10.60;;;3.60;;
6033;SDS011;3045;43.226;27.858;2022-11-20T09:53:51;10.03;;;3.93;;
6033;SDS011;3045;43.226;27.858;2022-11-20T09:56:27;10.23;;;4.20;;
6033;SDS011;3045;43.226;27.858;2022-11-20T09:58:55;9.97;;;3.87;;
6033;SDS011;3045;43.226;27.858;2022-11-20T10:01:29;11.97;;;3.37;;
6033;SDS011;3045;43.226;27.858;2022-11-20T10:03:58;11.13;;;4.17;;
6033;SDS011;3045;43.226;27.858;2022-11-20T10:06:30;13.40;;;4.07;;
6033;SDS011;3045;43.226;27.858;2022-11-20T10:09:14;10.67;;;3.77;;
6033;SDS011;3045;43.226;27.858;2022-11-20T10:11:50;12.17;;;4.50;;
6033;SDS011;3045;43.226;27.858;2022-11-20T10:14:26;17.27;;;4.20;;
6033;SDS011;3045;43.226;27.858;2022-11-20T10:17:03;16.63;;;3.90;;
6033;SDS011;3045;43.226;27.858;2022-11-20T10:19:49;6.63;;;3.80;;
6033;SDS011;3045;43.226;27.858;2022-11-20T10:22:31;10.50;;;3.50;;
6033;SDS011;3045;43.226;27.858;2022-11-20T10:25:10;9.40;;;3.97;;
6033;SDS011;3045;43.226;27.858;2022-11-20T10:30:51;8.70;;;3.73;;
6033;SDS011;3045;43.226;27.858;2022-11-20T10:33:25;11.03;;;3.27;;
6033;SDS011;3045;43.226;27.858;2022-11-20T10:35:57;9.70;;;3.80;;
6033;SDS011;3045;43.226;27.858;2022-11-20T10:38:34;16.13;;;4.50;;
6033;SDS011;3045;43.226;27.858;2022-11-20T10:41:05;9.40;;;4.60;;
6033;SDS011;3045;43.226;27.858;2022-11-20T10:43:52;10.30;;;4.07;;
6033;SDS011;3045;43.226;27.858;2022-11-20T10:46:24;12.10;;;4.00;;
6033;SDS011;3045;43.226;27.858;2022-11-20T10:48:57;9.27;;;3.77;;
6033;SDS011;3045;43.226;27.858;2022-11-20T10:51:30;15.57;;;3.90;;
6033;SDS011;3045;43.226;27.858;2022-11-20T10:54:08;10.47;;;3.70;;
6033;SDS011;3045;43.226;27.858;2022-11-20T10:56:46;6.97;;;4.07;;
6033;SDS011;3045;43.226;27.858;2022-11-20T10:59:37;8.90;;;3.47;;
6033;SDS011;3045;43.226;27.858;2022-11-20T11:02:15;15.40;;;4.03;;
6033;SDS011;3045;43.226;27.858;2022-11-20T11:04:46;17.10;;;3.80;;
6033;SDS011;3045;43.226;27.858;2022-11-20T11:07:16;10.60;;;4.67;;
6033;SDS011;3045;43.226;27.858;2022-11-20T11:09:48;11.43;;;4.10;;
6033;SDS011;3045;43.226;27.858;2022-11-20T11:12:16;11.93;;;4.20;;
6033;SDS011;3045;43.226;27.858;2022-11-20T11:14:45;18.33;;;4.20;;
6033;SDS011;3045;43.226;27.858;2022-11-20T11:17:21;7.97;;;3.72;;
6033;SDS011;3045;43.226;27.858;2022-11-20T11:20:02;14.07;;;3.57;;
6033;SDS011;3045;43.226;27.858;2022-11-20T11:22:32;11.33;;;3.67;;
6033;SDS011;3045;43.226;27.858;2022-11-20T11:25:00;20.03;;;5.93;;
6033;SDS011;3045;43.226;27.858;2022-11-20T11:27:28;17.90;;;5.03;;
6033;SDS011;3045;43.226;27.858;2022-11-20T11:30:02;16.70;;;5.03;;
6033;SDS011;3045;43.226;27.858;2022-11-20T11:32:39;18.63;;;4.60;;
6033;SDS011;3045;43.226;27.858;2022-11-20T11:35:18;14.17;;;3.90;;
6033;SDS011;3045;43.226;27.858;2022-11-20T11:37:47;11.97;;;4.27;;
6033;SDS011;3045;43.226;27.858;2022-11-20T11:40:17;14.47;;;4.17;;
6033;SDS011;3045;43.226;27.858;2022-11-20T11:42:46;11.83;;;3.63;;
6033;SDS011;3045;43.226;27.858;2022-11-20T11:45:20;16.08;;;4.10;;
6033;SDS011;3045;43.226;27.858;2022-11-20T11:47:47;17.93;;;5.73;;
6033;SDS011;3045;43.226;27.858;2022-11-20T11:50:17;21.33;;;7.87;;
6033;SDS011;3045;43.226;27.858;2022-11-20T11:52:52;8.10;;;4.63;;
6033;SDS011;3045;43.226;27.858;2022-11-20T11:55:29;14.10;;;4.60;;
6033;SDS011;3045;43.226;27.858;2022-11-20T11:58:04;14.50;;;4.20;;
6033;SDS011;3045;43.226;27.858;2022-11-20T12:00:41;25.50;;;4.60;;
6033;SDS011;3045;43.226;27.858;2022-11-20T12:03:18;13.83;;;4.13;;
6033;SDS011;3045;43.226;27.858;2022-11-20T12:05:54;9.10;;;4.10;;
6033;SDS011;3045;43.226;27.858;2022-11-20T12:08:25;14.50;;;4.40;;
6033;SDS011;3045;43.226;27.858;2022-11-20T12:10:57;13.07;;;4.20;;
6033;SDS011;3045;43.226;27.858;2022-11-20T12:16:17;19.70;;;4.50;;
6033;SDS011;3045;43.226;27.858;2022-11-20T12:18:46;13.83;;;4.17;;
6033;SDS011;3045;43.226;27.858;2022-11-20T12:21:20;11.23;;;4.17;;
6033;SDS011;3045;43.226;27.858;2022-11-20T12:24:06;13.47;;;4.60;;
6033;SDS011;3045;43.226;27.858;2022-11-20T12:26:51;12.97;;;4.17;;
6033;SDS011;3045;43.226;27.858;2022-11-20T12:29:32;16.50;;;4.67;;
6033;SDS011;3045;43.226;27.858;2022-11-20T12:35:13;22.90;;;5.53;;
6033;SDS011;3045;43.226;27.858;2022-11-20T12:37:59;17.33;;;4.60;;
6033;SDS011;3045;43.226;27.858;2022-11-20T12:40:43;19.50;;;5.67;;
6033;SDS011;3045;43.226;27.858;2022-11-20T12:43:16;21.70;;;4.97;;
6033;SDS011;3045;43.226;27.858;2022-11-20T12:46:13;18.80;;;5.47;;
6033;SDS011;3045;43.226;27.858;2022-11-20T12:49:09;23.07;;;5.00;;
6033;SDS011;3045;43.226;27.858;2022-11-20T12:54:59;20.70;;;4.90;;
6033;SDS011;3045;43.226;27.858;2022-11-20T12:57:38;16.50;;;5.33;;
6033;SDS011;3045;43.226;27.858;2022-11-20T13:00:14;22.70;;;5.03;;
6033;SDS011;3045;43.226;27.858;2022-11-20T13:02:50;19.60;;;5.63;;
6033;SDS011;3045;43.226;27.858;2022-11-20T13:05:43;19.17;;;5.57;;
6033;SDS011;3045;43.226;27.858;2022-11-20T13:08:19;23.60;;;5.10;;
6033;SDS011;3045;43.226;27.858;2022-11-20T13:10:51;22.55;;;5.75;;
6033;SDS011;3045;43.226;27.858;2022-11-20T13:13:28;26.43;;;5.90;;
6033;SDS011;3045;43.226;27.858;2022-11-20T13:16:02;26.10;;;5.53;;
6033;SDS011;3045;43.226;27.858;2022-11-20T13:18:38;20.92;;;5.13;;
6033;SDS011;3045;43.226;27.858;2022-11-20T13:21:13;30.37;;;5.93;;
6033;SDS011;3045;43.226;27.858;2022-11-20T13:23:41;26.17;;;6.43;;
6033;SDS011;3045;43.226;27.858;2022-11-20T13:26:15;35.97;;;6.83;;
6033;SDS011;3045;43.226;27.858;2022-11-20T13:28:47;21.17;;;6.30;;
6033;SDS011;3045;43.226;27.858;2022-11-20T13:31:31;26.27;;;7.13;;
6033;SDS011;3045;43.226;27.858;2022-11-20T13:34:01;21.20;;;5.65;;
6033;SDS011;3045;43.226;27.858;2022-11-20T13:36:30;24.53;;;5.70;;
6033;SDS011;3045;43.226;27.858;2022-11-20T13:39:00;23.25;;;6.22;;
6033;SDS011;3045;43.226;27.858;2022-11-20T13:41:30;28.17;;;5.27;;
6033;SDS011;3045;43.226;27.858;2022-11-20T13:44:04;22.57;;;5.53;;
6033;SDS011;3045;43.226;27.858;2022-11-20T13:46:36;29.07;;;6.33;;
6033;SDS011;3045;43.226;27.858;2022-11-20T13:49:08;19.53;;;6.27;;
6033;SDS011;3045;43.226;27.858;2022-11-20T13:51:40;19.70;;;5.40;;
6033;SDS011;3045;43.226;27.858;2022-11-20T13:57:30;26.90;;;5.87;;
6033;SDS011;3045;43.226;27.858;2022-11-20T14:00:18;17.93;;;5.90;;
6033;SDS011;3045;43.226;27.858;2022-11-20T14:02:49;16.03;;;5.17;;
6033;SDS011;3045;43.226;27.858;2022-11-20T14:05:25;37.63;;;6.63;;
6033;SDS011;3045;43.226;27.858;2022-11-20T14:07:53;29.37;;;5.97;;
6033;SDS011;3045;43.226;27.858;2022-11-20T14:10:22;26.77;;;5.80;;
6033;SDS011;3045;43.226;27.858;2022-11-20T14:12:52;29.03;;;5.93;;
6033;SDS011;3045;43.226;27.858;2022-11-20T14:15:26;25.07;;;6.07;;
6033;SDS011;3045;43.226;27.858;2022-11-20T14:17:54;26.00;;;6.10;;
6033;SDS011;3045;43.226;27.858;2022-11-20T14:20:23;35.90;;;6.43;;
6033;SDS011;3045;43.226;27.858;2022-11-20T14:22:53;33.13;;;5.80;;
6033;SDS011;3045;43.226;27.858;2022-11-20T14:25:21;27.50;;;6.00;;
6033;SDS011;3045;43.226;27.858;2022-11-20T14:27:54;31.30;;;6.60;;
6033;SDS011;3045;43.226;27.858;2022-11-20T14:30:23;24.50;;;5.67;;
6033;SDS011;3045;43.226;27.858;2022-11-20T14:32:52;46.20;;;7.13;;
6033;SDS011;3045;43.226;27.858;2022-11-20T14:35:23;34.37;;;6.60;;
6033;SDS011;3045;43.226;27.858;2022-11-20T14:37:52;24.60;;;6.20;;
6033;SDS011;3045;43.226;27.858;2022-11-20T14:40:24;33.80;;;5.97;;
6033;SDS011;3045;43.226;27.858;2022-11-20T14:42:55;30.87;;;6.23;;
6033;SDS011;3045;43.226;27.858;2022-11-20T14:45:23;26.20;;;6.27;;
6033;SDS011;3045;43.226;27.858;2022-11-20T14:47:51;33.50;;;7.47;;
6033;SDS011;3045;43.226;27.858;2022-11-20T14:50:20;31.00;;;6.07;;
6033;SDS011;3045;43.226;27.858;2022-11-20T14:52:50;27.97;;;6.10;;
6033;SDS011;3045;43.226;27.858;2022-11-20T14:55:24;27.47;;;5.90;;
6033;SDS011;3045;43.226;27.858;2022-11-20T14:57:55;29.77;;;7.00;;
6033;SDS011;3045;43.226;27.858;2022-11-20T15:00:23;41.97;;;7.10;;
6033;SDS011;3045;43.226;27.858;2022-11-20T15:02:51;30.47;;;6.83;;
6033;SDS011;3045;43.226;27.858;2022-11-20T15:05:19;37.37;;;7.30;;
6033;SDS011;3045;43.226;27.858;2022-11-20T15:07:47;27.27;;;6.20;;
6033;SDS011;3045;43.226;27.858;2022-11-20T15:10:20;29.20;;;6.93;;
6033;SDS011;3045;43.226;27.858;2022-11-20T15:12:48;30.80;;;7.43;;
6033;SDS011;3045;43.226;27.858;2022-11-20T15:15:19;28.60;;;6.67;;
6033;SDS011;3045;43.226;27.858;2022-11-20T15:17:50;28.67;;;6.47;;
6033;SDS011;3045;43.226;27.858;2022-11-20T15:20:17;28.13;;;6.63;;
6033;SDS011;3045;43.226;27.858;2022-11-20T15:22:45;34.97;;;6.97;;
6033;SDS011;3045;43.226;27.858;2022-11-20T15:25:12;30.10;;;6.83;;
6033;SDS011;3045;43.226;27.858;2022-11-20T15:27:40;32.07;;;7.10;;